sensor_id;sensor_type;location;lat;lon;timestamp;P1;durP1;ratioP1;P2;durP2;ratioP2
70426;SDS011;57872;55.432;37.248;2022-12-24T00:02:19;21.70;;;11.50;;
70426;SDS011;57872;55.432;37.248;2022-12-24T00:08:38;22.10;;;10.43;;
70426;SDS011;57872;55.432;37.248;2022-12-24T00:13:49;21.93;;;10.77;;
70426;SDS011;57872;55.432;37.248;2022-12-24T00:18:56;22.63;;;10.73;;
70426;SDS011;57872;55.432;37.248;2022-12-24T00:24:59;24.92;;;12.38;;
70426;SDS011;57872;55.432;37.248;2022-12-24T00:30:13;23.70;;;10.48;;
70426;SDS011;57872;55.432;37.248;2022-12-24T00:35:14;22.47;;;11.07;;
70426;SDS011;57872;55.432;37.248;2022-12-24T00:40:29;23.87;;;10.57;;
70426;SDS011;57872;55.432;37.248;2022-12-24T00:45:37;24.07;;;10.93;;
70426;SDS011;57872;55.432;37.248;2022-12-24T00:50:49;26.60;;;11.32;;
70426;SDS011;57872;55.432;37.248;2022-12-24T00:55:50;26.23;;;12.17;;
70426;SDS011;57872;55.432;37.248;2022-12-24T01:06:22;24.80;;;11.00;;
70426;SDS011;57872;55.432;37.248;2022-12-24T01:11:26;23.33;;;11.23;;
70426;SDS011;57872;55.432;37.248;2022-12-24T01:16:37;24.03;;;10.73;;
70426;SDS011;57872;55.432;37.248;2022-12-24T01:21:51;22.10;;;10.20;;
70426;SDS011;57872;55.432;37.248;2022-12-24T01:26:52;21.77;;;10.40;;
70426;SDS011;57872;55.432;37.248;2022-12-24T01:43:18;26.42;;;11.68;;
70426;SDS011;57872;55.432;37.248;2022-12-24T02:09:14;27.57;;;13.33;;
70426;SDS011;57872;55.432;37.248;2022-12-24T02:14:34;24.50;;;12.03;;
70426;SDS011;57872;55.432;37.248;2022-12-24T02:37:53;28.42;;;12.38;;
70426;SDS011;57872;55.432;37.248;2022-12-24T02:44:01;25.48;;;11.80;;
70426;SDS011;57872;55.432;37.248;2022-12-24T02:55:43;27.20;;;12.35;;
70426;SDS011;57872;55.432;37.248;2022-12-24T03:07:00;25.30;;;12.13;;
70426;SDS011;57872;55.432;37.248;2022-12-24T03:38:25;27.15;;;11.95;;
70426;SDS011;57872;55.432;37.248;2022-12-24T03:45:11;34.67;;;13.77;;
70426;SDS011;57872;55.432;37.248;2022-12-24T03:50:23;30.45;;;13.63;;
70426;SDS011;57872;55.432;37.248;2022-12-24T03:55:49;30.70;;;12.48;;
70426;SDS011;57872;55.432;37.248;2022-12-24T04:13:13;29.55;;;12.27;;
70426;SDS011;57872;55.432;37.248;2022-12-24T04:18:46;28.47;;;13.13;;
70426;SDS011;57872;55.432;37.248;2022-12-24T04:29:53;31.00;;;13.50;;
70426;SDS011;57872;55.432;37.248;2022-12-24T04:35:14;31.48;;;13.25;;
70426;SDS011;57872;55.432;37.248;2022-12-24T04:40:33;36.70;;;14.50;;
70426;SDS011;57872;55.432;37.248;2022-12-24T04:47:05;33.77;;;15.00;;
70426;SDS011;57872;55.432;37.248;2022-12-24T04:52:53;32.47;;;15.13;;
70426;SDS011;57872;55.432;37.248;2022-12-24T04:58:26;33.37;;;14.00;;
70426;SDS011;57872;55.432;37.248;2022-12-24T05:05:17;38.40;;;14.60;;
70426;SDS011;57872;55.432;37.248;2022-12-24T05:10:23;33.90;;;13.97;;
70426;SDS011;57872;55.432;37.248;2022-12-24T05:16:18;32.17;;;14.27;;
70426;SDS011;57872;55.432;37.248;2022-12-24T05:21:17;28.97;;;13.50;;
70426;SDS011;57872;55.432;37.248;2022-12-24T05:32:16;28.65;;;13.48;;
70426;SDS011;57872;55.432;37.248;2022-12-24T05:38:45;29.03;;;13.13;;
70426;SDS011;57872;55.432;37.248;2022-12-24T05:44:53;28.17;;;12.57;;
70426;SDS011;57872;55.432;37.248;2022-12-24T05:49:55;29.77;;;12.73;;
70426;SDS011;57872;55.432;37.248;2022-12-24T05:55:04;37.03;;;13.77;;
70426;SDS011;57872;55.432;37.248;2022-12-24T06:00:12;34.77;;;13.90;;
70426;SDS011;57872;55.432;37.248;2022-12-24T06:05:29;38.70;;;13.80;;
70426;SDS011;57872;55.432;37.248;2022-12-24T06:16:04;24.87;;;11.17;;
70426;SDS011;57872;55.432;37.248;2022-12-24T06:21:08;25.33;;;11.57;;
70426;SDS011;57872;55.432;37.248;2022-12-24T06:31:53;27.50;;;12.03;;
70426;SDS011;57872;55.432;37.248;2022-12-24T06:36:54;26.27;;;12.73;;
70426;SDS011;57872;55.432;37.248;2022-12-24T06:42:20;30.83;;;13.43;;
70426;SDS011;57872;55.432;37.248;2022-12-24T06:47:20;27.97;;;11.60;;
70426;SDS011;57872;55.432;37.248;2022-12-24T06:52:25;27.17;;;12.20;;
70426;SDS011;57872;55.432;37.248;2022-12-24T06:57:33;23.42;;;12.04;;
70426;SDS011;57872;55.432;37.248;2022-12-24T07:02:50;32.40;;;13.00;;
70426;SDS011;57872;55.432;37.248;2022-12-24T07:08:21;24.93;;;11.43;;
70426;SDS011;57872;55.432;37.248;2022-12-24T07:25:02;20.97;;;9.87;;
70426;SDS011;57872;55.432;37.248;2022-12-24T07:30:56;20.50;;;9.17;;
70426;SDS011;57872;55.432;37.248;2022-12-24T07:49:29;20.27;;;9.32;;
70426;SDS011;57872;55.432;37.248;2022-12-24T07:55:07;20.83;;;9.97;;
70426;SDS011;57872;55.432;37.248;2022-12-24T08:00:55;23.17;;;9.57;;
70426;SDS011;57872;55.432;37.248;2022-12-24T08:17:44;20.30;;;9.03;;
70426;SDS011;57872;55.432;37.248;2022-12-24T08:40:39;18.80;;;8.80;;
70426;SDS011;57872;55.432;37.248;2022-12-24T08:46:51;21.53;;;9.87;;
70426;SDS011;57872;55.432;37.248;2022-12-24T08:52:29;17.80;;;9.57;;
70426;SDS011;57872;55.432;37.248;2022-12-24T08:58:22;21.20;;;10.57;;
70426;SDS011;57872;55.432;37.248;2022-12-24T09:03:29;20.85;;;9.93;;
70426;SDS011;57872;55.432;37.248;2022-12-24T09:09:20;18.55;;;9.75;;
70426;SDS011;57872;55.432;37.248;2022-12-24T09:15:09;20.43;;;10.13;;
70426;SDS011;57872;55.432;37.248;2022-12-24T09:21:16;51.90;;;26.87;;
70426;SDS011;57872;55.432;37.248;2022-12-24T09:32:54;22.73;;;10.52;;
70426;SDS011;57872;55.432;37.248;2022-12-24T09:39:15;27.60;;;11.88;;
70426;SDS011;57872;55.432;37.248;2022-12-24T09:45:34;20.38;;;10.43;;
70426;SDS011;57872;55.432;37.248;2022-12-24T10:01:44;20.63;;;10.07;;
70426;SDS011;57872;55.432;37.248;2022-12-24T11:01:45;17.10;;;8.23;;
70426;SDS011;57872;55.432;37.248;2022-12-24T11:06:59;17.58;;;9.10;;
70426;SDS011;57872;55.432;37.248;2022-12-24T11:23:37;17.37;;;8.10;;
70426;SDS011;57872;55.432;37.248;2022-12-24T11:28:41;16.70;;;8.23;;
70426;SDS011;57872;55.432;37.248;2022-12-24T11:33:53;15.52;;;8.35;;
70426;SDS011;57872;55.432;37.248;2022-12-24T11:39:09;15.55;;;7.82;;
70426;SDS011;57872;55.432;37.248;2022-12-24T11:57:47;14.20;;;6.87;;
70426;SDS011;57872;55.432;37.248;2022-12-24T12:02:56;13.47;;;7.43;;
70426;SDS011;57872;55.432;37.248;2022-12-24T12:08:38;13.50;;;7.40;;
70426;SDS011;57872;55.432;37.248;2022-12-24T12:13:43;16.13;;;6.90;;
70426;SDS011;57872;55.432;37.248;2022-12-24T13:13:39;11.10;;;6.03;;
70426;SDS011;57872;55.432;37.248;2022-12-24T14:07:02;15.00;;;7.23;;
70426;SDS011;57872;55.432;37.248;2022-12-24T14:12:14;15.20;;;7.50;;
70426;SDS011;57872;55.432;37.248;2022-12-24T14:48:00;14.20;;;7.23;;
70426;SDS011;57872;55.432;37.248;2022-12-24T14:54:20;16.57;;;7.60;;
70426;SDS011;57872;55.432;37.248;2022-12-24T15:05:37;14.13;;;7.33;;
70426;SDS011;57872;55.432;37.248;2022-12-24T15:10:52;19.20;;;8.60;;
70426;SDS011;57872;55.432;37.248;2022-12-24T15:16:14;18.50;;;8.87;;
70426;SDS011;57872;55.432;37.248;2022-12-24T15:31:27;17.90;;;8.53;;
70426;SDS011;57872;55.432;37.248;2022-12-24T15:36:31;18.77;;;9.40;;
70426;SDS011;57872;55.432;37.248;2022-12-24T15:41:46;17.38;;;9.18;;
70426;SDS011;57872;55.432;37.248;2022-12-24T15:47:35;20.23;;;9.93;;
70426;SDS011;57872;55.432;37.248;2022-12-24T15:59:17;19.67;;;9.17;;
70426;SDS011;57872;55.432;37.248;2022-12-24T16:04:39;17.83;;;8.63;;
70426;SDS011;57872;55.432;37.248;2022-12-24T16:09:45;18.67;;;9.13;;
70426;SDS011;57872;55.432;37.248;2022-12-24T16:14:49;18.97;;;9.30;;
70426;SDS011;57872;55.432;37.248;2022-12-24T16:19:53;19.67;;;9.63;;
70426;SDS011;57872;55.432;37.248;2022-12-24T16:30:40;24.97;;;9.73;;
70426;SDS011;57872;55.432;37.248;2022-12-24T16:36:08;22.97;;;9.30;;
70426;SDS011;57872;55.432;37.248;2022-12-24T16:41:10;20.67;;;10.13;;
70426;SDS011;57872;55.432;37.248;2022-12-24T16:46:22;21.67;;;10.17;;
70426;SDS011;57872;55.432;37.248;2022-12-24T16:57:41;20.83;;;9.53;;
70426;SDS011;57872;55.432;37.248;2022-12-24T17:03:13;18.20;;;8.50;;
70426;SDS011;57872;55.432;37.248;2022-12-24T17:08:27;16.20;;;8.77;;
70426;SDS011;57872;55.432;37.248;2022-12-24T17:13:31;17.90;;;9.57;;
70426;SDS011;57872;55.432;37.248;2022-12-24T17:18:40;16.13;;;8.40;;
70426;SDS011;57872;55.432;37.248;2022-12-24T17:23:56;16.25;;;8.55;;
70426;SDS011;57872;55.432;37.248;2022-12-24T17:29:15;14.93;;;7.20;;
70426;SDS011;57872;55.432;37.248;2022-12-24T17:40:32;13.67;;;6.97;;
70426;SDS011;57872;55.432;37.248;2022-12-24T17:51:34;14.43;;;7.40;;
70426;SDS011;57872;55.432;37.248;2022-12-24T18:01:53;14.77;;;6.93;;
70426;SDS011;57872;55.432;37.248;2022-12-24T18:12:37;15.43;;;8.27;;
70426;SDS011;57872;55.432;37.248;2022-12-24T18:17:40;16.67;;;8.63;;
70426;SDS011;57872;55.432;37.248;2022-12-24T18:22:45;15.13;;;7.65;;
70426;SDS011;57872;55.432;37.248;2022-12-24T18:28:07;15.47;;;7.27;;
70426;SDS011;57872;55.432;37.248;2022-12-24T18:33:08;14.70;;;7.63;;
70426;SDS011;57872;55.432;37.248;2022-12-24T18:38:09;14.80;;;7.50;;
70426;SDS011;57872;55.432;37.248;2022-12-24T18:43:18;15.00;;;6.90;;
70426;SDS011;57872;55.432;37.248;2022-12-24T18:49:32;14.20;;;6.50;;
70426;SDS011;57872;55.432;37.248;2022-12-24T18:54:36;17.37;;;7.03;;
70426;SDS011;57872;55.432;37.248;2022-12-24T19:05:22;12.23;;;6.00;;
70426;SDS011;57872;55.432;37.248;2022-12-24T19:46:12;9.40;;;4.80;;
70426;SDS011;57872;55.432;37.248;2022-12-24T19:57:02;9.73;;;5.03;;
70426;SDS011;57872;55.432;37.248;2022-12-24T20:02:23;12.00;;;5.37;;
70426;SDS011;57872;55.432;37.248;2022-12-24T20:07:46;10.77;;;5.30;;
70426;SDS011;57872;55.432;37.248;2022-12-24T20:12:56;12.53;;;5.77;;
70426;SDS011;57872;55.432;37.248;2022-12-24T20:18:13;11.88;;;5.75;;
70426;SDS011;57872;55.432;37.248;2022-12-24T20:23:43;12.37;;;5.53;;
70426;SDS011;57872;55.432;37.248;2022-12-24T20:28:53;10.30;;;5.37;;
70426;SDS011;57872;55.432;37.248;2022-12-24T20:34:00;10.97;;;5.53;;
70426;SDS011;57872;55.432;37.248;2022-12-24T20:39:04;11.37;;;5.20;;
70426;SDS011;57872;55.432;37.248;2022-12-24T20:44:05;11.07;;;5.33;;
70426;SDS011;57872;55.432;37.248;2022-12-24T20:49:08;9.60;;;5.17;;
70426;SDS011;57872;55.432;37.248;2022-12-24T20:54:48;12.70;;;6.00;;
70426;SDS011;57872;55.432;37.248;2022-12-24T20:59:49;11.07;;;5.60;;
70426;SDS011;57872;55.432;37.248;2022-12-24T21:09:55;14.83;;;6.93;;
70426;SDS011;57872;55.432;37.248;2022-12-24T21:15:00;15.00;;;7.70;;
70426;SDS011;57872;55.432;37.248;2022-12-24T21:20:04;13.23;;;6.73;;
70426;SDS011;57872;55.432;37.248;2022-12-24T21:25:05;15.17;;;6.03;;
70426;SDS011;57872;55.432;37.248;2022-12-24T21:36:08;13.87;;;6.43;;
70426;SDS011;57872;55.432;37.248;2022-12-24T21:41:13;14.90;;;6.93;;
70426;SDS011;57872;55.432;37.248;2022-12-24T21:46:18;12.68;;;6.13;;
70426;SDS011;57872;55.432;37.248;2022-12-24T21:51:34;11.53;;;5.97;;
70426;SDS011;57872;55.432;37.248;2022-12-24T21:57:38;11.63;;;5.93;;
70426;SDS011;57872;55.432;37.248;2022-12-24T22:08:44;16.20;;;6.40;;
70426;SDS011;57872;55.432;37.248;2022-12-24T22:14:04;11.43;;;5.43;;
70426;SDS011;57872;55.432;37.248;2022-12-24T22:24:33;11.23;;;5.27;;
70426;SDS011;57872;55.432;37.248;2022-12-24T22:29:36;13.57;;;5.33;;
70426;SDS011;57872;55.432;37.248;2022-12-24T22:34:44;13.17;;;5.70;;
70426;SDS011;57872;55.432;37.248;2022-12-24T22:45:54;10.07;;;4.83;;
70426;SDS011;57872;55.432;37.248;2022-12-24T23:06:00;9.17;;;4.37;;
70426;SDS011;57872;55.432;37.248;2022-12-24T23:16:09;10.60;;;4.57;;
70426;SDS011;57872;55.432;37.248;2022-12-24T23:21:09;9.30;;;4.33;;
70426;SDS011;57872;55.432;37.248;2022-12-24T23:26:12;9.60;;;4.70;;
70426;SDS011;57872;55.432;37.248;2022-12-24T23:31:14;8.37;;;4.00;;
70426;SDS011;57872;55.432;37.248;2022-12-24T23:36:16;8.93;;;4.17;;
70426;SDS011;57872;55.432;37.248;2022-12-24T23:41:17;8.07;;;3.83;;
70426;SDS011;57872;55.432;37.248;2022-12-24T23:46:24;7.82;;;3.90;;
70426;SDS011;57872;55.432;37.248;2022-12-24T23:51:42;7.13;;;3.73;;
70426;SDS011;57872;55.432;37.248;2022-12-24T23:56:43;5.27;;;2.30;;
